Aérodrome :
LOGIN :

S'inscrire | Disclaimer

   EN    FR    IT 

 










Légende :    VFR   VFR Marginal   IFR   IFR Intensif   IFR Très Intensif
Visi : 
Plafond : 
>= 8 km
>= 3000ft
5 à 8 km
1000 à 3000 ft
1500m à 5 km
500 à 1000 ft
800 à 1500m
200 à 500 ft
< 800m
< 200 ft
Symboles :   Orages  Brouillard  Fortes neiges  Fortes précipitations  Vent > 20 kt
SIGMETs :   Divers  Orages  Givrage  Turbulence  Onde Orograph.  Cendres Volcan.







- Altitude de l'aérodrome : 74 ft
- Code IATA : EIN


EHEH - Eindhoven

DERNIER METAR :
  • 151125Z AUTO 20008KT 170V230 9999 OVC010 04/02 Q0995 GRN 20008KT 9999 BKN008 BKN010

METARs EXPIRÉS :
  • 151055Z AUTO 19006KT 150V220 9999 OVC011 04/02 Q0994 GRN 20008KT 9999 BKN008 BKN010
  • 151025Z AUTO 20008KT 9999 BKN010 OVC012 04/02 Q0994 GRN 20008KT 9999 BKN008 BKN010
  • 150955Z AUTO 21008KT 9999 FEW009 OVC011 04/02 Q0994 GRN 20008KT 9999 BKN008 BKN010
  • 150925Z AUTO 20007KT 170V230 9999 SCT009 OVC010 04/02 Q0994 GRN 20008KT 9999 BKN008 BKN010
  • 150855Z AUTO 19007KT 160V220 9999 FEW008 OVC010 04/02 Q0993 GRN 20008KT 9999 BKN008 BKN010

TAF TAF EHEH
Valide du 15 à 06h jusqu'au 16 à 12h UTC


150507Z 1506/1612 21008KT 9999 FEW007 BKN010
PROB30
TEMPO 1506/1516 4000 -SHRAGS FEW005 BKN008 SCT014CB BKN020
BECMG 1516/1519 VRB02KT 4000 BR
PROB30 1521/1602 0800 FG SCT001
BECMG 1602/1605 27005KT 9999 SCT020
TEMPO 1602/1612 4500 SHRA SHRAGS SCT018CB BKN020
Pas de NOTAMs connus pour ce terrain.



MET'MAP, la Météo Aéronautique d'un coup d'oeil ! - Copyright ORBIFLY Décembre 2007 - Disclaimer

ORBIFLY MET'MAP TEAM :

Programmation & Développement : Alexandra Zaïnal
Conception & Développement : Baudouin d'Aumeries
Co-Programmation & Développement : Marc-Olivier Méhu
Soutien technique & logistique : Manuel Goepfert

Contact : metmap@orbifly.com




SOURCES & CREDITS :

   NOAA